Time,TemperatureF,DewpointF,PressureIn,WindDirection,WindDirectionDegrees,WindSpeedMPH,WindSpeedGustMPH,Humidity,HourlyPrecipIn,Conditions,Clouds,dailyrainin,SoftwareType,DateUTC
2013-01-11 00:05:00,59.0,57.6,30.23,SE,135,1.6,3.1,95,0.00,,,0.00,pywws,2013-01-11 05:05:00,
2013-01-11 00:10:00,59.5,58.1,30.23,SSE,158,3.1,6.0,95,0.00,,,0.00,pywws,2013-01-11 05:10:00,
2013-01-11 00:15:00,59.0,57.6,30.23,SE,135,2.2,3.8,95,0.00,,,0.00,pywws,2013-01-11 05:15:00,
2013-01-11 00:20:00,58.8,57.4,30.23,SE,135,1.6,3.1,95,0.00,,,0.00,pywws,2013-01-11 05:20:00,
2013-01-11 00:25:00,58.8,57.4,30.24,SE,135,1.6,3.1,95,0.00,,,0.00,pywws,2013-01-11 05:25:00,
2013-01-11 00:35:00,58.8,57.7,30.24,SE,135,0.7,2.2,96,0.00,,,0.00,pywws,2013-01-11 05:35:00,
2013-01-11 00:40:00,58.8,57.7,30.24,SE,135,1.6,3.1,96,0.00,,,0.00,pywws,2013-01-11 05:40:00,
2013-01-11 00:45:00,59.0,57.9,30.24,SE,135,0.7,1.6,96,0.00,,,0.00,pywws,2013-01-11 05:45:00,
2013-01-11 00:50:00,59.0,57.9,30.24,East,90,2.2,4.5,96,0.00,,,0.00,pywws,2013-01-11 05:50:00,
2013-01-11 00:55:00,58.8,57.7,30.24,SE,135,1.6,3.8,96,0.00,,,0.00,pywws,2013-01-11 05:55:00,
2013-01-11 01:05:00,58.8,57.7,30.24,East,90,1.6,3.8,96,0.00,,,0.00,pywws,2013-01-11 06:05:00,
2013-01-11 01:10:00,58.8,57.7,30.25,South,180,1.6,3.8,96,0.00,,,0.00,pywws,2013-01-11 06:10:00,
2013-01-11 01:15:00,59.0,57.9,30.25,SE,135,1.6,3.1,96,0.00,,,0.00,pywws,2013-01-11 06:15:00,
2013-01-11 01:20:00,59.0,57.9,30.25,SE,135,1.6,3.1,96,0.00,,,0.00,pywws,2013-01-11 06:20:00,
2013-01-11 01:25:00,59.0,58.1,30.25,NW,315,0.0,0.7,97,0.00,,,0.00,pywws,2013-01-11 06:25:00,
2013-01-11 01:35:00,59.0,58.1,30.25,SE,135,1.6,3.1,97,0.00,,,0.00,pywws,2013-01-11 06:35:00,
2013-01-11 01:40:00,59.0,58.1,30.25,SE,135,0.7,2.2,97,0.00,,,0.00,pywws,2013-01-11 06:40:00,
2013-01-11 01:45:00,59.0,58.1,30.25,East,90,0.7,3.1,97,0.00,,,0.00,pywws,2013-01-11 06:45:00,
2013-01-11 01:50:00,59.0,58.1,30.26,SE,135,0.7,2.2,97,0.00,,,0.00,pywws,2013-01-11 06:50:00,
2013-01-11 01:55:00,59.2,58.3,30.26,SE,135,1.6,3.8,97,0.00,,,0.00,pywws,2013-01-11 06:55:00,
2013-01-11 02:05:00,59.2,58.3,30.26,SE,135,0.7,1.6,97,0.00,,,0.00,pywws,2013-01-11 07:05:00,
2013-01-11 02:09:00,59.2,58.3,30.26,SE,135,0.7,2.2,97,0.00,,,0.00,pywws,2013-01-11 07:09:00,
2013-01-11 02:14:00,59.2,58.3,30.26,SE,135,0.0,1.6,97,0.00,,,0.00,pywws,2013-01-11 07:14:00,
2013-01-11 02:19:00,59.2,58.3,30.26,SE,135,1.6,3.1,97,0.00,,,0.00,pywws,2013-01-11 07:19:00,
2013-01-11 02:24:00,59.2,58.3,30.26,East,90,0.0,2.2,97,0.00,,,0.00,pywws,2013-01-11 07:24:00,
2013-01-11 02:29:00,59.4,58.5,30.26,SE,135,1.6,3.8,97,0.00,,,0.00,pywws,2013-01-11 07:29:00,
2013-01-11 02:34:00,59.4,58.5,30.27,East,90,0.7,2.2,97,0.00,,,0.00,pywws,2013-01-11 07:34:00,
2013-01-11 02:39:00,59.5,58.7,30.27,SE,135,1.6,2.2,97,0.00,,,0.00,pywws,2013-01-11 07:39:00,
2013-01-11 02:44:00,59.5,58.7,30.27,South,180,0.0,2.2,97,0.00,,,0.00,pywws,2013-01-11 07:44:00,
2013-01-11 02:49:00,59.5,58.7,30.27,SE,135,2.2,3.8,97,0.00,,,0.00,pywws,2013-01-11 07:49:00,
2013-01-11 02:54:00,59.5,58.7,30.27,SE,135,2.2,3.8,97,0.00,,,0.00,pywws,2013-01-11 07:54:00,
2013-01-11 02:59:00,59.5,58.7,30.27,South,180,0.7,2.2,97,0.00,,,0.00,pywws,2013-01-11 07:59:00,
2013-01-11 03:04:00,59.5,58.7,30.27,SE,135,0.7,1.6,97,0.00,,,0.00,pywws,2013-01-11 08:04:00,
2013-01-11 03:09:00,59.7,59.2,30.27,ESE,112,0.7,2.2,98,0.00,,,0.00,pywws,2013-01-11 08:09:00,
2013-01-11 03:14:00,59.7,59.2,30.27,East,90,0.7,3.1,98,0.00,,,0.00,pywws,2013-01-11 08:14:00,
2013-01-11 03:19:00,59.7,59.2,30.28,East,90,0.7,3.1,98,0.00,,,0.00,pywws,2013-01-11 08:19:00,
2013-01-11 03:24:00,59.9,59.3,30.28,South,180,1.6,3.1,98,0.00,,,0.00,pywws,2013-01-11 08:24:00,
2013-01-11 03:29:00,59.9,59.3,30.28,South,180,1.6,3.1,98,0.00,,,0.00,pywws,2013-01-11 08:29:00,
2013-01-11 03:34:00,60.1,59.5,30.28,SE,135,0.7,2.2,98,0.00,,,0.00,pywws,2013-01-11 08:34:00,
2013-01-11 03:39:00,60.1,59.5,30.28,SE,135,0.7,2.2,98,0.00,,,0.00,pywws,2013-01-11 08:39:00,
2013-01-11 03:44:00,60.1,59.5,30.28,SE,135,0.0,0.7,98,0.00,,,0.00,pywws,2013-01-11 08:44:00,
2013-01-11 03:49:00,60.1,59.5,30.28,SE,135,0.7,1.6,98,0.00,,,0.00,pywws,2013-01-11 08:49:00,
2013-01-11 03:54:00,60.1,59.5,30.28,SE,135,0.7,1.6,98,0.00,,,0.00,pywws,2013-01-11 08:54:00,
2013-01-11 03:59:00,60.1,59.5,30.28,SW,225,0.7,1.6,98,0.00,,,0.00,pywws,2013-01-11 08:59:00,
2013-01-11 04:04:00,60.1,59.5,30.28,SW,225,0.7,1.6,98,0.00,,,0.00,pywws,2013-01-11 09:04:00,
2013-01-11 04:09:00,60.1,59.5,30.28,SE,135,0.7,1.6,98,0.00,,,0.00,pywws,2013-01-11 09:09:00,
2013-01-11 04:14:00,60.3,59.7,30.28,South,180,0.0,0.7,98,0.00,,,0.00,pywws,2013-01-11 09:14:00,
2013-01-11 04:19:00,60.3,59.7,30.28,SE,135,1.6,3.1,98,0.00,,,0.00,pywws,2013-01-11 09:19:00,
2013-01-11 04:24:00,60.3,59.7,30.29,SE,135,0.7,2.2,98,0.00,,,0.00,pywws,2013-01-11 09:24:00,
2013-01-11 04:29:00,60.3,59.7,30.29,SSE,158,1.6,3.8,98,0.00,,,0.00,pywws,2013-01-11 09:29:00,
2013-01-11 04:34:00,60.3,59.7,30.29,SSE,158,1.6,3.1,98,0.00,,,0.00,pywws,2013-01-11 09:34:00,
2013-01-11 04:39:00,60.3,59.7,30.29,SE,135,0.0,0.7,98,0.00,,,0.00,pywws,2013-01-11 09:39:00,
2013-01-11 04:44:00,60.3,59.7,30.29,SE,135,1.6,3.8,98,0.00,,,0.00,pywws,2013-01-11 09:44:00,
2013-01-11 04:49:00,60.3,59.7,30.29,SE,135,1.6,3.8,98,0.00,,,0.00,pywws,2013-01-11 09:49:00,
2013-01-11 04:54:00,59.9,59.3,30.29,South,180,1.6,2.2,98,0.00,,,0.00,pywws,2013-01-11 09:54:00,
2013-01-11 04:59:00,60.3,59.7,30.29,SE,135,0.7,2.2,98,0.00,,,0.00,pywws,2013-01-11 09:59:00,
2013-01-11 05:04:00,60.3,59.7,30.29,SE,135,0.7,2.2,98,0.00,,,0.00,pywws,2013-01-11 10:04:00,
2013-01-11 05:09:00,60.3,59.7,30.29,SE,135,0.7,1.6,98,0.00,,,0.00,pywws,2013-01-11 10:09:00,
2013-01-11 05:14:00,60.1,59.5,30.29,SE,135,0.0,1.6,98,0.00,,,0.00,pywws,2013-01-11 10:14:00,
2013-01-11 05:19:00,60.1,59.5,30.29,SE,135,0.7,1.6,98,0.00,,,0.00,pywws,2013-01-11 10:19:00,
2013-01-11 05:24:00,60.1,59.5,30.29,SE,135,0.0,1.6,98,0.00,,,0.00,pywws,2013-01-11 10:24:00,
2013-01-11 05:29:00,60.1,59.5,30.29,SE,135,0.7,1.6,98,0.00,,,0.00,pywws,2013-01-11 10:29:00,
2013-01-11 05:34:00,60.1,59.5,30.29,SE,135,0.7,1.6,98,0.00,,,0.00,pywws,2013-01-11 10:34:00,
2013-01-11 05:39:00,60.1,59.5,30.30,SE,135,1.6,3.1,98,0.00,,,0.00,pywws,2013-01-11 10:39:00,
2013-01-11 05:44:00,60.1,59.5,30.30,East,90,0.7,2.2,98,0.00,,,0.00,pywws,2013-01-11 10:44:00,
2013-01-11 05:49:00,60.1,59.5,30.30,East,90,1.6,4.5,98,0.00,,,0.00,pywws,2013-01-11 10:49:00,
2013-01-11 05:54:00,60.1,59.5,30.30,East,90,0.7,2.2,98,0.00,,,0.00,pywws,2013-01-11 10:54:00,
2013-01-11 05:59:00,59.9,59.3,30.30,ESE,112,2.2,3.8,98,0.00,,,0.00,pywws,2013-01-11 10:59:00,
2013-01-11 06:04:00,59.9,59.3,30.30,ESE,112,2.2,3.8,98,0.00,,,0.00,pywws,2013-01-11 11:04:00,
2013-01-11 06:09:00,60.1,59.5,30.30,SSE,158,0.7,3.1,98,0.00,,,0.00,pywws,2013-01-11 11:09:00,
2013-01-11 06:14:00,60.1,59.5,30.30,SE,135,0.7,2.2,98,0.00,,,0.00,pywws,2013-01-11 11:14:00,
2013-01-11 06:19:00,60.1,59.5,30.30,South,180,1.6,3.1,98,0.00,,,0.00,pywws,2013-01-11 11:19:00,
2013-01-11 06:24:00,60.3,59.7,30.30,SE,135,0.0,1.6,98,0.00,,,0.00,pywws,2013-01-11 11:24:00,
2013-01-11 06:29:00,60.3,60.0,30.30,SE,135,0.7,1.6,99,0.00,,,0.00,pywws,2013-01-11 11:29:00,
2013-01-11 06:34:00,60.3,59.7,30.30,SE,135,1.6,3.1,98,0.00,,,0.00,pywws,2013-01-11 11:34:00,
2013-01-11 06:39:00,60.4,60.2,30.30,South,180,0.0,2.2,99,0.00,,,0.00,pywws,2013-01-11 11:39:00,
2013-01-11 06:44:00,60.4,59.9,30.30,SE,135,0.7,2.2,98,0.00,,,0.00,pywws,2013-01-11 11:44:00,
2013-01-11 06:49:00,60.4,60.2,30.30,SE,135,0.7,1.6,99,0.00,,,0.00,pywws,2013-01-11 11:49:00,
2013-01-11 06:54:00,60.4,60.2,30.31,SE,135,1.6,3.1,99,0.00,,,0.00,pywws,2013-01-11 11:54:00,
2013-01-11 06:59:00,60.4,60.2,30.31,SE,135,0.0,1.6,99,0.00,,,0.00,pywws,2013-01-11 11:59:00,
2013-01-11 07:04:00,60.4,60.2,30.31,SE,135,0.0,1.6,99,0.00,,,0.00,pywws,2013-01-11 12:04:00,
2013-01-11 07:09:00,60.6,60.3,30.31,East,90,0.7,1.6,99,0.00,,,0.00,pywws,2013-01-11 12:09:00,
2013-01-11 07:14:00,60.6,60.3,30.31,East,90,0.0,0.7,99,0.00,,,0.00,pywws,2013-01-11 12:14:00,
2013-01-11 07:19:00,60.6,60.3,30.31,SE,135,0.0,1.6,99,0.00,,,0.00,pywws,2013-01-11 12:19:00,
2013-01-11 07:24:00,60.6,60.3,30.31,SE,135,0.7,3.1,99,0.00,,,0.00,pywws,2013-01-11 12:24:00,
2013-01-11 07:29:00,60.6,60.3,30.31,East,90,0.0,1.6,99,0.00,,,0.00,pywws,2013-01-11 12:29:00,
2013-01-11 07:34:00,60.6,60.3,30.31,SE,135,0.0,0.0,99,0.00,,,0.00,pywws,2013-01-11 12:34:00,
2013-01-11 07:39:00,60.6,60.3,30.31,SE,135,0.7,1.6,99,0.00,,,0.00,pywws,2013-01-11 12:39:00,
2013-01-11 07:44:00,60.6,60.3,30.31,SE,135,0.0,0.0,99,0.00,,,0.00,pywws,2013-01-11 12:44:00,
2013-01-11 07:49:00,60.8,60.5,30.30,SE,135,0.0,1.6,99,0.00,,,0.00,pywws,2013-01-11 12:49:00,
2013-01-11 07:54:00,60.8,60.5,30.30,SE,135,0.7,1.6,99,0.00,,,0.00,pywws,2013-01-11 12:54:00,
2013-01-11 07:59:00,60.8,60.5,30.30,SE,135,0.0,1.6,99,0.00,,,0.00,pywws,2013-01-11 12:59:00,
2013-01-11 08:04:00,60.8,60.5,30.30,SE,135,0.0,1.6,99,0.00,,,0.00,pywws,2013-01-11 13:04:00,
2013-01-11 08:09:00,60.8,60.5,30.30,SE,135,0.0,0.7,99,0.00,,,0.00,pywws,2013-01-11 13:09:00,
2013-01-11 08:14:00,60.8,60.5,30.29,SE,135,0.0,1.6,99,0.00,,,0.00,pywws,2013-01-11 13:14:00,
2013-01-11 08:19:00,60.8,60.5,30.29,East,90,0.0,1.6,99,0.00,,,0.00,pywws,2013-01-11 13:19:00,
2013-01-11 08:24:00,60.6,60.3,30.29,SE,135,0.7,3.1,99,0.00,,,0.00,pywws,2013-01-11 13:24:00,
2013-01-11 08:29:00,60.6,60.3,30.29,SE,135,2.2,3.8,99,0.00,,,0.00,pywws,2013-01-11 13:29:00,
2013-01-11 08:34:00,60.6,60.3,30.29,SE,135,0.7,3.1,99,0.00,,,0.00,pywws,2013-01-11 13:34:00,
2013-01-11 08:39:00,60.6,60.3,30.29,SE,135,0.0,0.7,99,0.00,,,0.00,pywws,2013-01-11 13:39:00,
2013-01-11 08:44:00,60.6,60.3,30.29,SE,135,0.0,0.0,99,0.00,,,0.00,pywws,2013-01-11 13:44:00,
2013-01-11 08:49:00,60.6,60.3,30.28,South,180,0.7,1.6,99,0.00,,,0.00,pywws,2013-01-11 13:49:00,
2013-01-11 08:54:00,60.6,60.3,30.28,SE,135,0.7,1.6,99,0.00,,,0.00,pywws,2013-01-11 13:54:00,
2013-01-11 08:59:00,60.6,60.3,30.28,SE,135,1.6,3.8,99,0.00,,,0.00,pywws,2013-01-11 13:59:00,
2013-01-11 09:04:00,60.6,60.3,30.28,SE,135,0.7,1.6,99,0.00,,,0.00,pywws,2013-01-11 14:04:00,
2013-01-11 09:09:00,60.6,60.3,30.28,South,180,1.6,3.1,99,0.00,,,0.00,pywws,2013-01-11 14:09:00,
2013-01-11 09:14:00,60.8,60.5,30.28,SE,135,0.7,1.6,99,0.00,,,0.00,pywws,2013-01-11 14:14:00,
2013-01-11 09:19:00,60.8,60.5,30.28,SSE,158,1.6,3.1,99,0.00,,,0.00,pywws,2013-01-11 14:19:00,
2013-01-11 09:24:00,60.8,60.5,30.28,SE,135,0.7,1.6,99,0.00,,,0.00,pywws,2013-01-11 14:24:00,
2013-01-11 09:29:00,60.8,60.5,30.28,East,90,0.7,2.2,99,0.00,,,0.00,pywws,2013-01-11 14:29:00,
2013-01-11 09:34:00,60.8,60.5,30.28,SE,135,0.7,2.2,99,0.00,,,0.00,pywws,2013-01-11 14:34:00,
2013-01-11 09:39:00,60.8,60.5,30.28,SE,135,0.7,2.2,99,0.00,,,0.00,pywws,2013-01-11 14:39:00,
2013-01-11 09:44:00,60.8,60.5,30.27,East,90,0.7,1.6,99,0.00,,,0.00,pywws,2013-01-11 14:44:00,
2013-01-11 09:49:00,60.8,60.5,30.27,SE,135,0.7,2.2,99,0.00,,,0.00,pywws,2013-01-11 14:49:00,
2013-01-11 09:54:00,61.0,60.7,30.27,SE,135,1.6,2.2,99,0.00,,,0.00,pywws,2013-01-11 14:54:00,
2013-01-11 09:59:00,61.0,60.7,30.27,SE,135,0.0,1.6,99,0.00,,,0.00,pywws,2013-01-11 14:59:00,
2013-01-11 10:04:00,61.0,60.7,30.27,South,180,1.6,2.2,99,0.00,,,0.00,pywws,2013-01-11 15:04:00,
2013-01-11 10:09:00,61.0,60.7,30.27,East,90,1.6,3.1,99,0.00,,,0.00,pywws,2013-01-11 15:09:00,
2013-01-11 10:14:00,61.0,60.7,30.27,SE,135,1.6,3.8,99,0.00,,,0.00,pywws,2013-01-11 15:14:00,
2013-01-11 10:19:00,61.0,60.7,30.27,SE,135,0.0,1.6,99,0.00,,,0.00,pywws,2013-01-11 15:19:00,
2013-01-11 10:24:00,61.0,60.7,30.27,SE,135,1.6,3.1,99,0.00,,,0.00,pywws,2013-01-11 15:24:00,
2013-01-11 10:29:00,61.2,60.9,30.27,SE,135,2.2,4.5,99,0.00,,,0.00,pywws,2013-01-11 15:29:00,
2013-01-11 10:34:00,61.2,60.9,30.27,SE,135,2.2,4.5,99,0.00,,,0.00,pywws,2013-01-11 15:34:00,
2013-01-11 10:39:00,61.2,60.9,30.27,SE,135,2.2,6.0,99,0.00,,,0.00,pywws,2013-01-11 15:39:00,
2013-01-11 10:44:00,61.3,61.1,30.27,SE,135,0.7,2.2,99,0.00,,,0.00,pywws,2013-01-11 15:44:00,
2013-01-11 10:49:00,61.5,61.2,30.27,East,90,0.0,1.6,99,0.00,,,0.00,pywws,2013-01-11 15:49:00,
2013-01-11 10:54:00,61.7,61.4,30.27,SE,135,0.7,2.2,99,0.00,,,0.00,pywws,2013-01-11 15:54:00,
2013-01-11 10:59:00,61.9,61.6,30.27,SE,135,0.7,3.1,99,0.00,,,0.00,pywws,2013-01-11 15:59:00,
2013-01-11 11:04:00,61.9,61.6,30.27,SE,135,2.2,3.8,99,0.00,,,0.00,pywws,2013-01-11 16:04:00,
2013-01-11 11:09:00,61.9,61.6,30.27,SE,135,3.1,4.5,99,0.00,,,0.00,pywws,2013-01-11 16:09:00,
2013-01-11 11:14:00,61.9,61.6,30.27,South,180,0.7,1.6,99,0.00,,,0.00,pywws,2013-01-11 16:14:00,
2013-01-11 11:19:00,61.9,61.6,30.27,South,180,0.7,2.2,99,0.00,,,0.00,pywws,2013-01-11 16:19:00,
2013-01-11 11:24:00,62.1,61.8,30.27,SE,135,0.7,1.6,99,0.00,,,0.00,pywws,2013-01-11 16:24:00,
2013-01-11 11:29:00,62.1,61.8,30.27,East,90,2.2,3.8,99,0.00,,,0.00,pywws,2013-01-11 16:29:00,
2013-01-11 11:34:00,62.4,62.1,30.27,South,180,1.6,2.2,99,0.00,,,0.00,pywws,2013-01-11 16:34:00,
2013-01-11 11:39:00,62.6,62.3,30.27,SE,135,1.6,3.8,99,0.00,,,0.00,pywws,2013-01-11 16:39:00,
2013-01-11 11:44:00,63.1,62.9,30.27,South,180,0.0,1.6,99,0.00,,,0.00,pywws,2013-01-11 16:44:00,
2013-01-11 11:49:00,63.7,63.4,30.27,SE,135,0.7,2.2,99,0.00,,,0.00,pywws,2013-01-11 16:49:00,
2013-01-11 11:54:00,64.0,63.8,30.27,SE,135,2.2,3.8,99,0.00,,,0.00,pywws,2013-01-11 16:54:00,
2013-01-11 11:59:00,64.8,64.5,30.27,South,180,0.7,1.6,99,0.00,,,0.00,pywws,2013-01-11 16:59:00,
2013-01-11 12:04:00,64.9,64.4,30.27,SE,135,1.6,3.1,98,0.00,,,0.00,pywws,2013-01-11 17:04:00,
2013-01-11 12:09:00,65.7,64.8,30.27,SE,135,1.6,3.1,97,0.00,,,0.00,pywws,2013-01-11 17:09:00,
2013-01-11 12:14:00,66.2,64.7,30.27,SE,135,0.7,2.2,95,0.00,,,0.00,pywws,2013-01-11 17:14:00,
2013-01-11 12:19:00,66.7,64.3,30.27,South,180,1.6,2.2,92,0.00,,,0.00,pywws,2013-01-11 17:19:00,
2013-01-11 12:24:00,67.3,64.2,30.27,South,180,3.1,5.4,90,0.00,,,0.00,pywws,2013-01-11 17:24:00,
2013-01-11 12:29:00,67.6,64.3,30.27,South,180,1.6,3.8,89,0.00,,,0.00,pywws,2013-01-11 17:29:00,
2013-01-11 12:34:00,68.2,64.5,30.27,SE,135,1.6,2.2,88,0.00,,,0.00,pywws,2013-01-11 17:34:00,
2013-01-11 12:39:00,69.3,64.9,30.27,SE,135,2.2,3.8,86,0.00,,,0.00,pywws,2013-01-11 17:39:00,
2013-01-11 12:44:00,69.4,64.4,30.27,South,180,1.6,2.2,84,0.00,,,0.00,pywws,2013-01-11 17:44:00,
2013-01-11 12:49:00,69.6,64.2,30.27,East,90,2.2,4.5,83,0.00,,,0.00,pywws,2013-01-11 17:49:00,
2013-01-11 12:54:00,70.2,64.0,30.26,SW,225,3.1,6.9,81,0.00,,,0.00,pywws,2013-01-11 17:54:00,
2013-01-11 12:59:00,70.2,63.7,30.26,South,180,2.2,3.8,80,0.00,,,0.00,pywws,2013-01-11 17:59:00,
2013-01-11 13:04:00,70.5,64.0,30.26,South,180,2.2,4.5,80,0.00,,,0.00,pywws,2013-01-11 18:04:00,
2013-01-11 13:09:00,70.7,64.2,30.26,East,90,0.7,3.1,80,0.00,,,0.00,pywws,2013-01-11 18:09:00,
2013-01-11 13:14:00,70.7,64.2,30.26,SSE,158,0.7,2.2,80,0.00,,,0.00,pywws,2013-01-11 18:14:00,
2013-01-11 13:19:00,71.1,64.2,30.26,South,180,1.6,3.8,79,0.00,,,0.00,pywws,2013-01-11 18:19:00,
2013-01-11 13:24:00,70.9,63.3,30.26,ESE,112,3.1,6.9,77,0.00,,,0.00,pywws,2013-01-11 18:24:00,
2013-01-11 13:29:00,71.2,63.6,30.26,SE,135,2.2,4.5,77,0.00,,,0.00,pywws,2013-01-11 18:29:00,
2013-01-11 13:34:00,71.2,63.6,30.26,SE,135,1.6,3.1,77,0.00,,,0.00,pywws,2013-01-11 18:34:00,
2013-01-11 13:39:00,71.4,63.8,30.26,SE,135,1.6,3.8,77,0.00,,,0.00,pywws,2013-01-11 18:39:00,
2013-01-11 13:44:00,71.8,63.8,30.25,South,180,0.7,2.2,76,0.00,,,0.00,pywws,2013-01-11 18:44:00,
2013-01-11 13:49:00,72.1,63.8,30.25,South,180,0.7,2.2,75,0.00,,,0.00,pywws,2013-01-11 18:49:00,
2013-01-11 13:54:00,72.5,63.7,30.25,South,180,3.1,5.4,74,0.00,,,0.00,pywws,2013-01-11 18:54:00,
2013-01-11 13:59:00,72.7,63.9,30.25,South,180,2.2,3.8,74,0.00,,,0.00,pywws,2013-01-11 18:59:00,
2013-01-11 14:04:00,73.2,63.6,30.25,South,180,3.1,6.0,72,0.00,,,0.00,pywws,2013-01-11 19:04:00,
2013-01-11 14:09:00,73.2,64.0,30.25,South,180,1.6,2.2,73,0.00,,,0.00,pywws,2013-01-11 19:09:00,
2013-01-11 14:14:00,73.2,63.6,30.25,SE,135,1.6,3.8,72,0.00,,,0.00,pywws,2013-01-11 19:14:00,
2013-01-11 14:19:00,73.0,63.5,30.24,SE,135,0.7,3.1,72,0.00,,,0.00,pywws,2013-01-11 19:19:00,
2013-01-11 14:24:00,73.0,63.5,30.24,SE,135,1.6,3.8,72,0.00,,,0.00,pywws,2013-01-11 19:24:00,
2013-01-11 14:29:00,73.2,63.2,30.24,South,180,2.2,4.5,71,0.00,,,0.00,pywws,2013-01-11 19:29:00,
2013-01-11 14:34:00,73.6,63.6,30.24,SW,225,2.2,5.4,71,0.00,,,0.00,pywws,2013-01-11 19:34:00,
2013-01-11 14:39:00,74.8,64.4,30.24,East,90,1.6,3.8,70,0.00,,,0.00,pywws,2013-01-11 19:39:00,
2013-01-11 14:44:00,75.4,64.1,30.24,SW,225,3.1,4.5,68,0.00,,,0.00,pywws,2013-01-11 19:44:00,
2013-01-11 14:49:00,75.0,63.7,30.24,SE,135,1.6,3.8,68,0.00,,,0.00,pywws,2013-01-11 19:49:00,
2013-01-11 14:54:00,75.0,63.7,30.24,SE,135,3.1,5.4,68,0.00,,,0.00,pywws,2013-01-11 19:54:00,
2013-01-11 14:59:00,74.3,63.0,30.24,South,180,3.1,3.8,68,0.00,,,0.00,pywws,2013-01-11 19:59:00,
2013-01-11 15:04:00,74.3,63.0,30.24,SE,135,3.1,8.3,68,0.00,,,0.00,pywws,2013-01-11 20:04:00,
2013-01-11 15:09:00,74.3,63.5,30.24,South,180,2.2,3.8,69,0.00,,,0.00,pywws,2013-01-11 20:09:00,
2013-01-11 15:14:00,74.3,63.5,30.24,South,180,1.6,3.1,69,0.00,,,0.00,pywws,2013-01-11 20:14:00,
2013-01-11 15:19:00,74.1,62.9,30.23,South,180,3.8,6.9,68,0.00,,,0.00,pywws,2013-01-11 20:19:00,
2013-01-11 15:24:00,76.1,64.8,30.23,South,180,3.1,6.0,68,0.00,,,0.00,pywws,2013-01-11 20:24:00,
2013-01-11 15:36:00,75.6,63.4,30.23,West,270,1.6,3.1,66,0.00,,,0.00,pywws,2013-01-11 20:36:00,
2013-01-11 15:39:00,75.0,63.3,30.22,South,180,3.1,6.0,67,0.00,,,0.00,pywws,2013-01-11 20:39:00,
2013-01-11 15:44:00,75.2,63.5,30.22,West,270,2.2,5.4,67,0.00,,,0.00,pywws,2013-01-11 20:44:00,
2013-01-11 15:49:00,76.1,63.9,30.22,South,180,3.8,5.4,66,0.00,,,0.00,pywws,2013-01-11 20:49:00,
2013-01-11 15:54:00,76.5,63.8,30.22,SE,135,1.6,3.1,65,0.00,,,0.00,pywws,2013-01-11 20:54:00,
2013-01-11 16:05:00,75.6,63.4,30.22,West,270,1.6,3.1,66,0.00,,,0.00,pywws,2013-01-11 21:05:00,
2013-01-11 16:10:00,76.6,64.0,30.21,South,180,2.2,3.8,65,0.00,,,0.00,pywws,2013-01-11 21:10:00,
2013-01-11 16:15:00,75.7,63.6,30.21,SE,135,0.7,2.2,66,0.00,,,0.00,pywws,2013-01-11 21:15:00,
2013-01-11 16:20:00,75.6,63.8,30.21,South,180,1.6,3.8,67,0.00,,,0.00,pywws,2013-01-11 21:20:00,
2013-01-11 16:25:00,75.6,63.8,30.21,SE,135,3.1,5.4,67,0.00,,,0.00,pywws,2013-01-11 21:25:00,
2013-01-11 16:35:00,74.8,63.6,30.21,South,180,0.7,2.2,68,0.00,,,0.00,pywws,2013-01-11 21:35:00,
2013-01-11 16:39:00,73.9,63.1,30.21,East,90,0.7,2.2,69,0.00,,,0.00,pywws,2013-01-11 21:39:00,
2013-01-11 16:44:00,73.6,63.2,30.20,South,180,0.7,2.2,70,0.00,,,0.00,pywws,2013-01-11 21:44:00,
2013-01-11 16:49:00,73.0,63.1,30.20,SE,135,0.7,2.2,71,0.00,,,0.00,pywws,2013-01-11 21:49:00,
2013-01-11 16:54:00,72.9,62.9,30.20,ESE,112,0.7,1.6,71,0.00,,,0.00,pywws,2013-01-11 21:54:00,
2013-01-11 17:05:00,72.7,63.1,30.20,SE,135,0.7,3.1,72,0.00,,,0.00,pywws,2013-01-11 22:05:00,
2013-01-11 17:10:00,72.3,62.8,30.20,East,90,0.0,0.7,72,0.00,,,0.00,pywws,2013-01-11 22:10:00,
2013-01-11 17:15:00,72.1,63.0,30.19,SE,135,0.7,3.1,73,0.00,,,0.00,pywws,2013-01-11 22:15:00,
2013-01-11 17:20:00,72.0,63.2,30.19,South,180,1.6,2.2,74,0.00,,,0.00,pywws,2013-01-11 22:20:00,
2013-01-11 17:25:00,71.6,62.9,30.19,South,180,2.2,3.8,74,0.00,,,0.00,pywws,2013-01-11 22:25:00,
2013-01-11 17:35:00,71.6,62.9,30.19,South,180,0.0,1.6,74,0.00,,,0.00,pywws,2013-01-11 22:35:00,
2013-01-11 17:40:00,71.1,62.7,30.19,SE,135,0.7,1.6,75,0.00,,,0.00,pywws,2013-01-11 22:40:00,
2013-01-11 17:45:00,70.7,62.8,30.19,SE,135,0.7,1.6,76,0.00,,,0.00,pywws,2013-01-11 22:45:00,
2013-01-11 17:50:00,70.5,62.6,30.19,SE,135,0.7,2.2,76,0.00,,,0.00,pywws,2013-01-11 22:50:00,
2013-01-11 17:55:00,70.3,62.8,30.18,SE,135,0.7,1.6,77,0.00,,,0.00,pywws,2013-01-11 22:55:00,
2013-01-11 18:05:00,70.0,62.4,30.18,SE,135,0.0,0.0,77,0.00,,,0.00,pywws,2013-01-11 23:05:00,
2013-01-11 18:09:00,68.9,62.5,30.18,SE,135,0.7,2.2,80,0.00,,,0.00,pywws,2013-01-11 23:09:00,
2013-01-11 18:14:00,68.4,62.3,30.18,SE,135,1.6,3.1,81,0.00,,,0.00,pywws,2013-01-11 23:14:00,
2013-01-11 18:19:00,68.4,62.6,30.18,SE,135,1.6,3.1,82,0.00,,,0.00,pywws,2013-01-11 23:19:00,
2013-01-11 18:24:00,68.5,62.5,30.18,SE,135,1.6,3.1,81,0.00,,,0.00,pywws,2013-01-11 23:24:00,
2013-01-11 18:35:00,68.7,62.6,30.18,SE,135,1.6,2.2,81,0.00,,,0.00,pywws,2013-01-11 23:35:00,
2013-01-11 18:40:00,68.4,62.3,30.18,SE,135,0.0,0.7,81,0.00,,,0.00,pywws,2013-01-11 23:40:00,
2013-01-11 18:45:00,68.2,62.5,30.18,SE,135,1.6,2.2,82,0.00,,,0.00,pywws,2013-01-11 23:45:00,
2013-01-11 18:50:00,68.2,62.8,30.18,SE,135,1.6,3.1,83,0.00,,,0.00,pywws,2013-01-11 23:50:00,
2013-01-11 18:55:00,68.4,62.6,30.18,SE,135,1.6,2.2,82,0.00,,,0.00,pywws,2013-01-11 23:55:00,
2013-01-11 19:05:00,68.5,62.8,30.18,South,180,0.0,0.7,82,0.00,,,0.00,pywws,2013-01-12 00:05:00,
2013-01-11 19:10:00,68.5,62.8,30.18,SE,135,0.7,1.6,82,0.00,,,0.00,pywws,2013-01-12 00:10:00,
2013-01-11 19:15:00,68.4,62.6,30.18,SE,135,0.7,1.6,82,0.00,,,0.00,pywws,2013-01-12 00:15:00,
2013-01-11 19:20:00,68.5,62.8,30.18,SE,135,0.7,1.6,82,0.00,,,0.00,pywws,2013-01-12 00:20:00,
2013-01-11 19:25:00,68.5,62.8,30.18,SE,135,1.6,2.2,82,0.00,,,0.00,pywws,2013-01-12 00:25:00,
2013-01-11 19:35:00,68.5,62.8,30.18,SE,135,0.7,1.6,82,0.00,,,0.00,pywws,2013-01-12 00:35:00,
2013-01-11 19:40:00,68.4,62.6,30.17,SE,135,0.7,1.6,82,0.00,,,0.00,pywws,2013-01-12 00:40:00,
2013-01-11 19:45:00,68.4,63.0,30.17,SE,135,0.7,1.6,83,0.00,,,0.00,pywws,2013-01-12 00:45:00,
2013-01-11 19:50:00,68.4,63.0,30.17,SE,135,0.7,1.6,83,0.00,,,0.00,pywws,2013-01-12 00:50:00,
2013-01-11 19:55:00,68.4,63.0,30.17,East,90,0.0,0.7,83,0.00,,,0.00,pywws,2013-01-12 00:55:00,
2013-01-11 20:05:00,68.4,63.0,30.17,SE,135,0.7,2.2,83,0.00,,,0.00,pywws,2013-01-12 01:05:00,
2013-01-11 20:09:00,68.4,63.0,30.17,SE,135,0.7,2.2,83,0.00,,,0.00,pywws,2013-01-12 01:09:00,
2013-01-11 20:14:00,68.4,63.0,30.17,South,180,0.7,2.2,83,0.00,,,0.00,pywws,2013-01-12 01:14:00,
2013-01-11 20:19:00,68.4,63.0,30.17,SE,135,0.0,0.0,83,0.00,,,0.00,pywws,2013-01-12 01:19:00,
2013-01-11 20:24:00,68.4,63.0,30.17,SE,135,0.7,2.2,83,0.00,,,0.00,pywws,2013-01-12 01:24:00,
2013-01-11 20:35:00,68.4,63.0,30.17,SE,135,0.7,2.2,83,0.00,,,0.00,pywws,2013-01-12 01:35:00,
2013-01-11 20:40:00,68.4,63.0,30.17,SE,135,0.7,2.2,83,0.00,,,0.00,pywws,2013-01-12 01:40:00,
2013-01-11 20:45:00,68.2,62.8,30.17,SE,135,0.7,2.2,83,0.00,,,0.00,pywws,2013-01-12 01:45:00,
2013-01-11 20:50:00,68.2,62.8,30.17,SE,135,1.6,2.2,83,0.00,,,0.00,pywws,2013-01-12 01:50:00,
2013-01-11 20:55:00,68.0,62.6,30.17,SE,135,0.0,1.6,83,0.00,,,0.00,pywws,2013-01-12 01:55:00,
2013-01-11 21:05:00,68.0,63.0,30.17,SE,135,0.0,0.7,84,0.00,,,0.00,pywws,2013-01-12 02:05:00,
2013-01-11 21:10:00,68.0,63.0,30.17,SE,135,0.7,3.1,84,0.00,,,0.00,pywws,2013-01-12 02:10:00,
2013-01-11 21:15:00,67.8,62.8,30.17,SE,135,0.0,1.6,84,0.00,,,0.00,pywws,2013-01-12 02:15:00,
2013-01-11 21:20:00,67.8,62.8,30.17,SE,135,0.7,1.6,84,0.00,,,0.00,pywws,2013-01-12 02:20:00,
2013-01-11 21:25:00,67.6,62.6,30.17,SE,135,0.7,1.6,84,0.00,,,0.00,pywws,2013-01-12 02:25:00,
2013-01-11 21:35:00,67.6,63.0,30.17,SE,135,0.7,2.2,85,0.00,,,0.00,pywws,2013-01-12 02:35:00,
2013-01-11 21:40:00,67.6,63.0,30.17,SE,135,0.7,1.6,85,0.00,,,0.00,pywws,2013-01-12 02:40:00,
2013-01-11 21:45:00,67.5,62.8,30.17,SE,135,1.6,2.2,85,0.00,,,0.00,pywws,2013-01-12 02:45:00,
2013-01-11 21:50:00,67.5,62.8,30.17,SE,135,0.0,0.0,85,0.00,,,0.00,pywws,2013-01-12 02:50:00,
2013-01-11 21:55:00,67.5,62.8,30.17,SE,135,0.0,0.0,85,0.00,,,0.00,pywws,2013-01-12 02:55:00,
2013-01-11 22:05:00,67.1,62.4,30.17,SE,135,0.0,0.0,85,0.00,,,0.00,pywws,2013-01-12 03:05:00,
2013-01-11 22:10:00,66.6,61.9,30.17,SE,135,0.0,0.7,85,0.00,,,0.00,pywws,2013-01-12 03:10:00,
2013-01-11 22:15:00,66.6,62.2,30.17,SE,135,0.0,1.6,86,0.00,,,0.00,pywws,2013-01-12 03:15:00,
2013-01-11 22:20:00,66.6,62.6,30.17,SE,135,1.6,2.2,87,0.00,,,0.00,pywws,2013-01-12 03:20:00,
2013-01-11 22:25:00,66.6,62.6,30.17,SE,135,0.7,1.6,87,0.00,,,0.00,pywws,2013-01-12 03:25:00,
2013-01-11 22:35:00,66.6,62.6,30.17,SE,135,0.7,1.6,87,0.00,,,0.00,pywws,2013-01-12 03:35:00,
2013-01-11 22:40:00,66.6,62.6,30.17,East,90,0.0,1.6,87,0.00,,,0.00,pywws,2013-01-12 03:40:00,
2013-01-11 22:45:00,66.6,62.2,30.18,SW,225,0.0,0.0,86,0.00,,,0.00,pywws,2013-01-12 03:45:00,
2013-01-11 22:50:00,66.6,62.6,30.18,South,180,0.7,1.6,87,0.00,,,0.00,pywws,2013-01-12 03:50:00,
2013-01-11 22:55:00,66.6,62.6,30.18,SE,135,0.0,2.2,87,0.00,,,0.00,pywws,2013-01-12 03:55:00,
2013-01-11 23:05:00,66.6,62.6,30.18,SE,135,0.7,1.6,87,0.00,,,0.00,pywws,2013-01-12 04:05:00,
2013-01-11 23:10:00,66.7,62.7,30.18,SE,135,0.7,1.6,87,0.00,,,0.00,pywws,2013-01-12 04:10:00,
2013-01-11 23:15:00,66.6,62.6,30.18,SE,135,0.0,0.7,87,0.00,,,0.00,pywws,2013-01-12 04:15:00,
2013-01-11 23:20:00,66.6,62.6,30.19,SE,135,0.7,1.6,87,0.00,,,0.00,pywws,2013-01-12 04:20:00,
2013-01-11 23:25:00,66.6,62.6,30.19,SE,135,0.7,1.6,87,0.00,,,0.00,pywws,2013-01-12 04:25:00,
2013-01-11 23:35:00,66.4,62.4,30.19,South,180,1.6,2.2,87,0.00,,,0.00,pywws,2013-01-12 04:35:00,
2013-01-11 23:40:00,66.0,62.4,30.19,SE,135,0.7,2.2,88,0.00,,,0.00,pywws,2013-01-12 04:40:00,
2013-01-11 23:45:00,65.8,62.2,30.19,SE,135,0.7,3.1,88,0.00,,,0.00,pywws,2013-01-12 04:45:00,
2013-01-11 23:50:00,65.8,62.2,30.19,SE,135,0.7,1.6,88,0.00,,,0.00,pywws,2013-01-12 04:50:00,
2013-01-11 23:55:00,65.8,62.2,30.19,South,180,0.0,1.6,88,0.00,,,0.00,pywws,2013-01-12 04:55:00,